createdAt,value
2023-01-22T00:01:18.175Z,2.26
2023-01-22T00:03:46.765Z,2.28
2023-01-22T00:06:15.052Z,2.25
2023-01-22T00:08:42.967Z,2.21
2023-01-22T00:11:11.491Z,2.20
2023-01-22T00:13:38.775Z,2.18
2023-01-22T00:16:06.617Z,2.17
2023-01-22T00:18:34.396Z,2.17
2023-01-22T00:21:01.412Z,2.16
2023-01-22T00:23:28.375Z,2.16
2023-01-22T00:26:06.806Z,2.13
2023-01-22T00:28:33.994Z,2.10
2023-01-22T00:31:02.982Z,2.08
2023-01-22T00:33:30.535Z,2.09
2023-01-22T00:36:04.608Z,2.08
2023-01-22T00:38:31.747Z,2.04
2023-01-22T00:41:07.731Z,2.02
2023-01-22T00:43:38.670Z,2.03
2023-01-22T00:46:07.552Z,2.02
2023-01-22T00:48:35.096Z,2.03
2023-01-22T00:51:02.107Z,2.03
2023-01-22T00:53:29.241Z,2.04
2023-01-22T00:56:00.147Z,2.05
2023-01-22T00:58:28.329Z,2.06
2023-01-22T01:00:55.879Z,2.05
2023-01-22T01:03:30.476Z,2.06
2023-01-22T01:05:59.936Z,2.03
2023-01-22T01:08:29.553Z,2.02
2023-01-22T01:11:02.531Z,2.01
2023-01-22T01:13:33.338Z,2.00
2023-01-22T01:16:07.267Z,2.00
2023-01-22T01:18:35.791Z,2.02
2023-01-22T01:21:04.858Z,2.04
2023-01-22T01:23:31.797Z,2.07
2023-01-22T01:25:58.865Z,2.05
2023-01-22T01:28:28.839Z,2.06
2023-01-22T01:30:55.998Z,2.07
2023-01-22T01:33:23.013Z,2.06
2023-01-22T01:35:49.994Z,2.06
2023-01-22T01:38:16.936Z,2.04
2023-01-22T01:40:44.627Z,2.05
2023-01-22T01:43:16.214Z,2.07
2023-01-22T01:45:43.566Z,2.10
2023-01-22T01:48:39.053Z,2.10
2023-01-22T01:51:15.603Z,2.08
2023-01-22T01:53:46.386Z,2.07
2023-01-22T01:56:21.231Z,2.08
2023-01-22T01:58:51.426Z,2.10
2023-01-22T02:01:19.595Z,2.11
2023-01-22T02:03:47.835Z,2.11
2023-01-22T02:06:17.777Z,2.09
2023-01-22T02:08:48.335Z,2.08
2023-01-22T02:11:18.513Z,2.06
2023-01-22T02:14:17.817Z,2.06
2023-01-22T02:16:45.228Z,2.07
2023-01-22T02:19:12.175Z,2.06
2023-01-22T02:21:44.460Z,2.06
2023-01-22T02:24:17.228Z,2.08
2023-01-22T02:26:45.800Z,2.09
2023-01-22T02:29:14.404Z,2.11
2023-01-22T02:31:42.760Z,2.13
2023-01-22T02:34:11.198Z,2.15
2023-01-22T02:36:39.851Z,2.15
2023-01-22T02:39:07.352Z,2.15
2023-01-22T02:41:34.304Z,2.17
2023-01-22T02:44:02.202Z,2.19
2023-01-22T02:46:30.399Z,2.17
2023-01-22T02:48:57.501Z,2.18
2023-01-22T02:51:26.631Z,2.19
2023-01-22T02:53:54.156Z,2.20
2023-01-22T02:56:22.252Z,2.19
2023-01-22T02:58:49.240Z,2.16
2023-01-22T03:01:23.279Z,2.16
2023-01-22T03:03:55.753Z,2.14
2023-01-22T03:06:26.850Z,2.10
2023-01-22T03:08:57.508Z,2.10
2023-01-22T03:11:27.642Z,2.10
2023-01-22T03:14:14.563Z,2.09
2023-01-22T03:17:02.315Z,2.08
2023-01-22T03:19:48.062Z,2.05
2023-01-22T03:22:16.215Z,2.06
2023-01-22T03:24:45.187Z,2.07
2023-01-22T03:27:12.131Z,2.11
2023-01-22T03:29:39.097Z,2.11
2023-01-22T03:32:06.733Z,2.10
2023-01-22T03:34:34.181Z,2.09
2023-01-22T03:37:01.137Z,2.06
2023-01-22T03:39:28.364Z,2.06
2023-01-22T03:41:55.305Z,2.09
2023-01-22T03:44:22.416Z,2.08
2023-01-22T03:46:49.930Z,2.06
2023-01-22T03:49:17.113Z,2.09
2023-01-22T03:51:44.477Z,2.10
2023-01-22T03:54:12.852Z,2.11
2023-01-22T03:56:40.166Z,2.12
2023-01-22T03:59:07.281Z,2.12
2023-01-22T04:01:35.058Z,2.11
2023-01-22T04:04:03.674Z,2.11
2023-01-22T04:06:30.748Z,2.12
2023-01-22T04:08:57.843Z,2.12
2023-01-22T04:11:24.942Z,2.12
2023-01-22T04:13:51.913Z,2.17
2023-01-22T04:16:18.918Z,2.13
2023-01-22T04:18:45.850Z,2.09
2023-01-22T04:21:13.168Z,2.06
2023-01-22T04:23:40.142Z,2.08
2023-01-22T04:26:07.152Z,2.11
2023-01-22T04:28:34.137Z,2.12
2023-01-22T04:31:01.300Z,2.13
2023-01-22T04:33:28.302Z,2.15
2023-01-22T04:35:56.031Z,2.15
2023-01-22T04:38:23.180Z,2.15
2023-01-22T04:40:50.487Z,2.13
2023-01-22T04:43:17.408Z,2.13
2023-01-22T04:45:44.425Z,2.12
2023-01-22T04:48:12.652Z,2.14
2023-01-22T04:50:39.768Z,2.14
2023-01-22T04:53:06.954Z,2.13
2023-01-22T04:55:33.952Z,2.14
2023-01-22T04:58:02.296Z,2.14
2023-01-22T05:00:30.413Z,2.16
2023-01-22T05:02:59.668Z,2.17
2023-01-22T05:05:28.067Z,2.13
2023-01-22T05:07:55.246Z,2.11
2023-01-22T05:10:22.951Z,2.07
2023-01-22T05:12:50.354Z,2.06
2023-01-22T05:15:24.418Z,2.07
2023-01-22T05:17:53.522Z,2.08
2023-01-22T05:20:21.565Z,2.08
2023-01-22T05:22:49.610Z,2.09
2023-01-22T05:25:16.634Z,2.07
2023-01-22T05:27:44.173Z,2.09
2023-01-22T05:30:13.119Z,2.07
2023-01-22T05:32:40.206Z,2.03
2023-01-22T05:35:07.545Z,2.01
2023-01-22T05:37:34.755Z,2.00
2023-01-22T05:40:01.992Z,1.98
2023-01-22T05:42:29.050Z,1.97
2023-01-22T05:44:55.965Z,1.94
2023-01-22T05:47:22.944Z,1.95
2023-01-22T05:49:49.860Z,1.95
2023-01-22T05:52:16.871Z,1.95
2023-01-22T05:54:43.762Z,1.94
2023-01-22T05:57:10.827Z,1.95
2023-01-22T05:59:37.950Z,1.98
2023-01-22T06:02:04.927Z,1.97
2023-01-22T06:04:31.896Z,1.98
2023-01-22T06:06:58.903Z,1.94
2023-01-22T06:09:25.843Z,1.93
2023-01-22T06:11:52.760Z,1.94
2023-01-22T06:14:19.810Z,1.93
2023-01-22T06:16:46.948Z,1.92
2023-01-22T06:19:13.910Z,1.91
2023-01-22T06:21:43.612Z,1.92
2023-01-22T06:24:11.155Z,1.92
2023-01-22T06:26:38.407Z,1.93
2023-01-22T06:29:05.685Z,1.93
2023-01-22T06:31:32.837Z,1.94
2023-01-22T06:34:00.015Z,1.96
2023-01-22T06:36:27.447Z,1.96
2023-01-22T06:38:54.366Z,1.97
2023-01-22T06:41:21.372Z,1.96
2023-01-22T06:43:48.408Z,1.96
2023-01-22T06:46:15.754Z,1.99
2023-01-22T06:48:43.738Z,2.01
2023-01-22T06:51:11.111Z,2.02
2023-01-22T06:53:38.764Z,2.03
2023-01-22T06:56:06.612Z,2.02
2023-01-22T06:58:33.582Z,2.03
2023-01-22T07:01:03.205Z,2.06
2023-01-22T07:03:30.411Z,2.07
2023-01-22T07:06:02.770Z,2.08
2023-01-22T07:08:32.230Z,2.09
2023-01-22T07:10:59.954Z,2.07
2023-01-22T07:13:27.063Z,2.07
2023-01-22T07:15:54.056Z,2.05
2023-01-22T07:18:23.795Z,2.06
2023-01-22T07:20:51.320Z,2.08
2023-01-22T07:23:18.441Z,2.09
2023-01-22T07:25:45.962Z,2.13
2023-01-22T07:28:15.046Z,2.13
2023-01-22T07:30:43.915Z,2.13
2023-01-22T07:33:11.960Z,2.13
2023-01-22T07:35:39.612Z,2.13
2023-01-22T07:38:07.178Z,2.13
2023-01-22T07:40:34.968Z,2.17
2023-01-22T07:43:07.001Z,2.21
2023-01-22T07:45:35.176Z,2.27
2023-01-22T07:48:02.675Z,2.30
2023-01-22T07:50:31.892Z,2.30
2023-01-22T07:53:00.704Z,2.31
2023-01-22T07:55:28.502Z,2.31
2023-01-22T07:58:05.781Z,2.33
2023-01-22T08:00:35.354Z,2.34
2023-01-22T08:03:05.386Z,2.35
2023-01-22T08:05:33.001Z,2.35
2023-01-22T08:07:59.967Z,2.34
2023-01-22T08:10:26.983Z,2.35
2023-01-22T08:12:54.005Z,2.37
2023-01-22T08:15:21.242Z,2.37
2023-01-22T08:17:50.452Z,2.36
2023-01-22T08:20:18.403Z,2.37
2023-01-22T08:22:45.685Z,2.40
2023-01-22T08:25:12.749Z,2.45
2023-01-22T08:27:39.820Z,2.50
2023-01-22T08:30:08.777Z,2.47
2023-01-22T08:32:35.826Z,2.45
2023-01-22T08:35:02.783Z,2.41
2023-01-22T08:37:29.731Z,2.39
2023-01-22T08:39:56.691Z,2.40
2023-01-22T08:42:23.725Z,2.40
2023-01-22T08:44:50.687Z,2.41
2023-01-22T08:47:17.611Z,2.42
2023-01-22T08:49:44.605Z,2.43
2023-01-22T08:52:11.554Z,2.46
2023-01-22T08:54:38.515Z,2.51
2023-01-22T08:57:05.481Z,2.54
2023-01-22T08:59:32.436Z,2.56
2023-01-22T09:02:00.218Z,2.57
2023-01-22T09:04:27.837Z,2.57
2023-01-22T09:06:55.356Z,2.55
2023-01-22T09:09:23.065Z,2.53
2023-01-22T09:11:50.117Z,2.56
2023-01-22T09:14:17.017Z,2.59
2023-01-22T09:16:44.118Z,2.65
2023-01-22T09:19:12.037Z,2.65
2023-01-22T09:21:39.081Z,2.64
2023-01-22T09:24:07.468Z,2.66
2023-01-22T09:26:36.807Z,2.69
2023-01-22T09:29:05.911Z,2.68
2023-01-22T09:31:35.492Z,2.65
2023-01-22T09:34:03.404Z,2.65
2023-01-22T09:36:30.817Z,2.61
2023-01-22T09:38:57.947Z,2.60
2023-01-22T09:41:37.444Z,2.61
2023-01-22T09:44:13.058Z,2.62
2023-01-22T09:46:53.633Z,2.64
2023-01-22T09:49:37.087Z,2.64
2023-01-22T09:52:06.289Z,2.66
2023-01-22T09:54:33.609Z,2.65
2023-01-22T09:57:05.459Z,2.64
2023-01-22T09:59:55.521Z,2.61
2023-01-22T10:02:53.263Z,2.62
2023-01-22T10:05:30.189Z,2.62
2023-01-22T10:08:19.740Z,2.61
2023-01-22T10:10:47.129Z,2.66
2023-01-22T10:13:28.376Z,2.66
2023-01-22T10:15:56.755Z,2.67
2023-01-22T10:18:48.586Z,2.64
2023-01-22T10:21:28.533Z,2.69
2023-01-22T10:23:58.094Z,2.75
2023-01-22T10:26:49.232Z,2.75
2023-01-22T10:29:25.580Z,2.74
2023-01-22T10:31:56.692Z,2.81
2023-01-22T10:34:31.277Z,2.91
2023-01-22T10:37:03.936Z,2.95
2023-01-22T10:39:50.706Z,3.00
2023-01-22T10:42:24.073Z,3.01
2023-01-22T10:45:09.277Z,3.02
2023-01-22T10:47:36.211Z,3.00
2023-01-22T10:50:14.714Z,2.99
2023-01-22T10:52:54.753Z,3.01
2023-01-22T10:55:30.175Z,3.02
2023-01-22T10:58:06.389Z,3.05
2023-01-22T11:00:50.590Z,3.12
2023-01-22T11:03:39.686Z,3.19
2023-01-22T11:06:29.300Z,3.22
2023-01-22T11:09:15.891Z,3.21
2023-01-22T11:11:51.021Z,3.12
2023-01-22T11:14:28.717Z,3.00
2023-01-22T11:17:05.302Z,3.03
2023-01-22T11:19:43.611Z,3.01
2023-01-22T11:22:26.829Z,2.98
2023-01-22T11:24:54.144Z,2.96
2023-01-22T11:27:56.373Z,2.91
2023-01-22T11:30:49.345Z,2.92
2023-01-22T11:34:02.201Z,3.04
2023-01-22T11:36:53.198Z,3.11
2023-01-22T11:39:41.893Z,3.12
2023-01-22T11:42:29.734Z,3.09
2023-01-22T11:45:31.345Z,3.07
2023-01-22T11:48:16.354Z,3.12
2023-01-22T11:51:16.762Z,3.25
2023-01-22T11:53:43.651Z,3.33
2023-01-22T11:56:37.408Z,3.39
2023-01-22T11:59:37.305Z,3.43
2023-01-22T12:02:23.018Z,3.43
2023-01-22T12:05:17.220Z,3.45
2023-01-22T12:08:02.632Z,3.46
2023-01-22T12:10:55.972Z,3.39
2023-01-22T12:13:53.274Z,3.32
2023-01-22T12:16:45.483Z,3.28
2023-01-22T12:19:32.500Z,3.22
2023-01-22T12:22:30.716Z,3.17
2023-01-22T12:25:29.431Z,3.15
2023-01-22T12:28:15.912Z,3.11
2023-01-22T12:30:59.235Z,3.12
2023-01-22T12:33:34.850Z,3.10
2023-01-22T12:36:04.607Z,3.12
2023-01-22T12:39:08.575Z,3.16
2023-01-22T12:42:22.842Z,3.26
2023-01-22T12:45:08.405Z,3.36
2023-01-22T12:48:30.558Z,3.43
2023-01-22T12:50:58.710Z,3.39
2023-01-22T12:53:34.820Z,3.31
2023-01-22T12:56:10.817Z,3.28
2023-01-22T12:58:41.051Z,3.30
2023-01-22T13:01:24.897Z,3.25
2023-01-22T13:04:05.178Z,3.21
2023-01-22T13:06:37.168Z,3.13
2023-01-22T13:09:07.170Z,3.10
2023-01-22T13:11:41.325Z,3.07
2023-01-22T13:14:26.829Z,3.04
2023-01-22T13:17:03.692Z,3.00
2023-01-22T13:19:47.220Z,2.94
2023-01-22T13:22:26.340Z,2.90
2023-01-22T13:24:58.815Z,2.84
2023-01-22T13:27:34.277Z,2.84
2023-01-22T13:30:19.248Z,2.82
2023-01-22T13:32:46.354Z,2.77
2023-01-22T13:35:17.767Z,2.70
2023-01-22T13:37:51.553Z,2.66
2023-01-22T13:40:29.251Z,2.64
2023-01-22T13:42:58.919Z,2.68
2023-01-22T13:45:30.374Z,2.67
2023-01-22T13:48:04.066Z,2.63
2023-01-22T13:50:31.703Z,2.63
2023-01-22T13:53:02.256Z,2.67
2023-01-22T13:55:30.392Z,2.68
2023-01-22T13:58:02.254Z,2.70
2023-01-22T14:00:34.695Z,2.71
2023-01-22T14:03:02.849Z,2.70
2023-01-22T14:05:34.091Z,2.69
2023-01-22T14:08:27.131Z,2.68
2023-01-22T14:11:00.830Z,2.67
2023-01-22T14:13:27.902Z,2.66
2023-01-22T14:16:01.974Z,2.69
2023-01-22T14:18:29.627Z,2.71
2023-01-22T14:20:56.622Z,2.73
2023-01-22T14:23:23.628Z,2.72
2023-01-22T14:25:54.442Z,2.68
2023-01-22T14:28:23.360Z,2.68
2023-01-22T14:30:51.521Z,2.65
2023-01-22T14:33:25.584Z,2.65
2023-01-22T14:35:54.042Z,2.67
2023-01-22T14:38:21.808Z,2.66
2023-01-22T14:40:49.371Z,2.63
2023-01-22T14:43:16.605Z,2.60
2023-01-22T14:45:45.634Z,2.60
2023-01-22T14:48:17.373Z,2.64
2023-01-22T14:50:44.491Z,2.69
2023-01-22T14:53:13.177Z,2.72
2023-01-22T14:55:42.664Z,2.76
2023-01-22T14:58:10.495Z,2.77
2023-01-22T15:03:05.734Z,2.83
2023-01-22T15:05:35.346Z,2.81
2023-01-22T15:08:03.102Z,2.77
2023-01-22T15:10:30.153Z,2.78
2023-01-22T15:12:57.099Z,2.75
2023-01-22T15:15:28.670Z,2.73
2023-01-22T15:17:57.333Z,2.63
2023-01-22T15:20:25.129Z,2.66
2023-01-22T15:22:52.424Z,2.64
2023-01-22T15:25:19.426Z,2.61
2023-01-22T15:27:46.604Z,2.63
2023-01-22T15:30:14.726Z,2.65
2023-01-22T15:32:41.694Z,2.66
2023-01-22T15:35:09.411Z,2.67
2023-01-22T15:37:36.335Z,2.69
2023-01-22T15:40:04.316Z,2.69
2023-01-22T15:42:31.375Z,2.64
2023-01-22T15:44:58.538Z,2.64
2023-01-22T15:47:25.474Z,2.65
2023-01-22T15:49:52.400Z,2.64
2023-01-22T15:52:19.420Z,2.64
2023-01-22T15:54:46.381Z,2.58
2023-01-22T15:57:14.294Z,2.56
2023-01-22T15:59:42.217Z,2.55
2023-01-22T16:02:12.545Z,2.58
2023-01-22T16:04:39.487Z,2.62
2023-01-22T16:07:06.451Z,2.66
2023-01-22T16:09:33.891Z,2.73
2023-01-22T16:12:00.859Z,2.71
2023-01-22T16:14:29.239Z,2.67
2023-01-22T16:16:56.347Z,2.62
2023-01-22T16:19:23.467Z,2.58
2023-01-22T16:21:52.382Z,2.57
2023-01-22T16:24:19.406Z,2.54
2023-01-22T16:26:46.358Z,2.55
2023-01-22T16:29:13.470Z,2.57
2023-01-22T16:31:40.857Z,2.57
2023-01-22T16:34:15.103Z,2.60
2023-01-22T16:36:43.626Z,2.62
2023-01-22T16:39:23.050Z,2.58
2023-01-22T16:41:52.269Z,2.57
2023-01-22T16:44:27.217Z,2.59
2023-01-22T16:46:57.595Z,2.63
2023-01-22T16:49:30.624Z,2.68
2023-01-22T16:52:20.588Z,2.74
2023-01-22T16:54:49.414Z,2.74
2023-01-22T16:57:16.540Z,2.73
2023-01-22T16:59:43.743Z,2.74
2023-01-22T17:02:16.573Z,2.75
2023-01-22T17:04:44.758Z,2.75
2023-01-22T17:07:27.272Z,2.74
2023-01-22T17:09:59.014Z,2.70
2023-01-22T17:12:26.531Z,2.73
2023-01-22T17:14:53.519Z,2.74
2023-01-22T17:17:20.587Z,2.72
2023-01-22T17:19:47.495Z,2.68
2023-01-22T17:22:14.816Z,2.62
2023-01-22T17:24:41.947Z,2.55
2023-01-22T17:27:09.048Z,2.51
2023-01-22T17:29:36.350Z,2.54
2023-01-22T17:32:04.297Z,2.55
2023-01-22T17:34:31.840Z,2.54
2023-01-22T17:36:58.883Z,2.53
2023-01-22T17:39:26.154Z,2.53
2023-01-22T17:41:53.205Z,2.52
2023-01-22T17:44:20.485Z,2.52
2023-01-22T17:46:49.120Z,2.51
2023-01-22T17:49:16.723Z,2.48
2023-01-22T17:51:43.753Z,2.49
2023-01-22T17:54:10.793Z,2.49
2023-01-22T17:56:47.254Z,2.50
2023-01-22T17:59:15.050Z,2.50
2023-01-22T18:01:42.155Z,2.45
2023-01-22T18:04:12.732Z,2.46
2023-01-22T18:06:41.981Z,2.45
2023-01-22T18:09:10.659Z,2.45
2023-01-22T18:11:39.086Z,2.46
2023-01-22T18:14:15.838Z,2.46
2023-01-22T18:16:43.745Z,2.45
2023-01-22T18:19:11.017Z,2.41
2023-01-22T18:21:39.195Z,2.40
2023-01-22T18:24:08.844Z,2.43
2023-01-22T18:26:37.068Z,2.43
2023-01-22T18:29:05.885Z,2.43
2023-01-22T18:31:33.443Z,2.47
2023-01-22T18:34:03.780Z,2.49
2023-01-22T18:36:35.468Z,2.50
2023-01-22T18:39:10.526Z,2.53
2023-01-22T18:41:37.874Z,2.52
2023-01-22T18:44:05.084Z,2.53
2023-01-22T18:46:36.742Z,2.55
2023-01-22T18:49:07.678Z,2.51
2023-01-22T18:51:34.786Z,2.51
2023-01-22T18:54:05.231Z,2.46
2023-01-22T18:56:32.543Z,2.48
2023-01-22T18:59:00.005Z,2.47
2023-01-22T19:01:30.348Z,2.44
2023-01-22T19:04:04.825Z,2.42
2023-01-22T19:06:37.202Z,2.42
2023-01-22T19:09:12.263Z,2.44
2023-01-22T19:11:42.445Z,2.46
2023-01-22T19:14:13.803Z,2.51
2023-01-22T19:16:44.696Z,2.51
2023-01-22T19:19:13.601Z,2.54
2023-01-22T19:21:47.665Z,2.53
2023-01-22T19:24:18.573Z,2.54
2023-01-22T19:26:46.838Z,2.50
2023-01-22T19:29:19.491Z,2.46
2023-01-22T19:31:51.814Z,2.43
2023-01-22T19:34:25.420Z,2.41
2023-01-22T19:37:02.271Z,2.42
2023-01-22T19:39:30.464Z,2.38
2023-01-22T19:42:01.718Z,2.36
2023-01-22T19:44:30.201Z,2.37
2023-01-22T19:46:57.355Z,2.39
2023-01-22T19:49:24.319Z,2.39
2023-01-22T19:51:51.302Z,2.41
2023-01-22T19:54:19.015Z,2.43
2023-01-22T19:56:46.011Z,2.47
2023-01-22T19:59:19.181Z,2.49
2023-01-22T20:01:48.535Z,2.50
2023-01-22T20:04:29.777Z,2.51
2023-01-22T20:07:00.595Z,2.55
2023-01-22T20:09:29.320Z,2.56
2023-01-22T20:11:58.114Z,2.56
2023-01-22T20:14:39.097Z,2.54
2023-01-22T20:17:06.350Z,2.56
2023-01-22T20:19:33.498Z,2.54
2023-01-22T20:22:03.190Z,2.56
2023-01-22T20:24:30.245Z,2.60
2023-01-22T20:26:58.635Z,2.62
2023-01-22T20:29:26.101Z,2.60
2023-01-22T20:31:54.307Z,2.59
2023-01-22T20:34:21.843Z,2.56
2023-01-22T20:36:49.135Z,2.52
2023-01-22T20:39:16.272Z,2.51
2023-01-22T20:41:45.715Z,2.52
2023-01-22T20:44:13.829Z,2.53
2023-01-22T20:46:43.785Z,2.53
2023-01-22T20:49:11.852Z,2.55
2023-01-22T20:51:39.705Z,2.53
2023-01-22T20:54:06.833Z,2.51
2023-01-22T20:56:35.455Z,2.50
2023-01-22T20:59:12.356Z,2.49
2023-01-22T21:01:39.829Z,2.52
2023-01-22T21:04:07.125Z,2.51
2023-01-22T21:06:36.488Z,2.50
2023-01-22T21:09:05.223Z,2.49
2023-01-22T21:11:34.595Z,2.46
2023-01-22T21:14:05.017Z,2.47
2023-01-22T21:16:35.424Z,2.47
2023-01-22T21:19:12.349Z,2.46
2023-01-22T21:21:39.345Z,2.53
2023-01-22T21:24:06.939Z,2.56
2023-01-22T21:26:33.926Z,2.57
2023-01-22T21:29:06.097Z,2.57
2023-01-22T21:31:33.190Z,2.56
2023-01-22T21:34:03.424Z,2.55
2023-01-22T21:36:53.766Z,2.53
2023-01-22T21:39:24.667Z,2.54
2023-01-22T21:42:12.357Z,2.54
2023-01-22T21:44:57.751Z,2.51
2023-01-22T21:47:24.788Z,2.51
2023-01-22T21:49:51.734Z,2.51
2023-01-22T21:52:18.703Z,2.52
2023-01-22T21:54:45.939Z,2.52
2023-01-22T21:57:16.115Z,2.56
2023-01-22T21:59:45.605Z,2.55
2023-01-22T22:02:15.706Z,2.55
2023-01-22T22:04:43.064Z,2.59
2023-01-22T22:07:10.571Z,2.64
2023-01-22T22:09:37.781Z,2.62
2023-01-22T22:12:05.919Z,2.65
2023-01-22T22:14:33.106Z,2.68
2023-01-22T22:17:00.698Z,2.68
2023-01-22T22:19:29.006Z,2.70
2023-01-22T22:21:56.000Z,2.72
2023-01-22T22:24:23.124Z,2.73
2023-01-22T22:26:50.148Z,2.74
2023-01-22T22:29:17.148Z,2.74
2023-01-22T22:31:44.316Z,2.73
2023-01-22T22:34:11.429Z,2.75
2023-01-22T22:36:38.577Z,2.74
2023-01-22T22:39:06.659Z,2.76
2023-01-22T22:41:36.880Z,2.72
2023-01-22T22:44:04.367Z,2.72
2023-01-22T22:46:34.910Z,2.71
2023-01-22T22:49:03.251Z,2.71
2023-01-22T22:51:36.940Z,2.74
2023-01-22T22:54:19.239Z,2.76
2023-01-22T22:56:48.117Z,2.79
2023-01-22T22:59:16.172Z,2.75
2023-01-22T23:01:43.381Z,2.75
2023-01-22T23:04:12.168Z,2.71
2023-01-22T23:06:39.465Z,2.73
2023-01-22T23:09:09.181Z,2.71
2023-01-22T23:11:36.575Z,2.70
2023-01-22T23:14:04.603Z,2.73
2023-01-22T23:16:38.350Z,2.70
2023-01-22T23:19:15.884Z,2.66
2023-01-22T23:21:43.281Z,2.67
2023-01-22T23:24:13.815Z,2.66
2023-01-22T23:26:42.716Z,2.66
2023-01-22T23:29:14.184Z,2.64
2023-01-22T23:31:41.462Z,2.65
2023-01-22T23:34:13.361Z,2.65
2023-01-22T23:36:44.409Z,2.68
2023-01-22T23:39:14.340Z,2.66
2023-01-22T23:41:42.139Z,2.63
2023-01-22T23:44:09.764Z,2.62
2023-01-22T23:46:37.047Z,2.67
2023-01-22T23:49:04.978Z,2.71
2023-01-22T23:51:32.361Z,2.71
2023-01-22T23:53:59.331Z,2.76
2023-01-22T23:56:32.153Z,2.79
2023-01-22T23:58:59.706Z,2.76
